sensor_id;sensor_type;location;lat;lon;timestamp;P1;durP1;ratioP1;P2;durP2;ratioP2
67941;SDS011;54731;42.600;23.476;2022-07-29T00:00:45;9.93;;;8.27;;
67941;SDS011;54731;42.600;23.476;2022-07-29T00:03:11;10.97;;;8.50;;
67941;SDS011;54731;42.600;23.476;2022-07-29T00:05:38;11.80;;;8.90;;
67941;SDS011;54731;42.600;23.476;2022-07-29T00:08:04;10.52;;;8.90;;
67941;SDS011;54731;42.600;23.476;2022-07-29T00:10:29;11.53;;;8.43;;
67941;SDS011;54731;42.600;23.476;2022-07-29T00:12:54;11.80;;;9.43;;
67941;SDS011;54731;42.600;23.476;2022-07-29T00:15:20;10.43;;;9.02;;
67941;SDS011;54731;42.600;23.476;2022-07-29T00:17:45;11.27;;;8.33;;
67941;SDS011;54731;42.600;23.476;2022-07-29T00:20:11;9.97;;;8.53;;
67941;SDS011;54731;42.600;23.476;2022-07-29T00:22:37;11.00;;;9.37;;
67941;SDS011;54731;42.600;23.476;2022-07-29T00:25:03;13.05;;;9.63;;
67941;SDS011;54731;42.600;23.476;2022-07-29T00:27:29;12.98;;;8.95;;
67941;SDS011;54731;42.600;23.476;2022-07-29T00:29:54;12.50;;;9.47;;
67941;SDS011;54731;42.600;23.476;2022-07-29T00:32:20;13.37;;;9.60;;
67941;SDS011;54731;42.600;23.476;2022-07-29T00:34:45;14.53;;;9.20;;
67941;SDS011;54731;42.600;23.476;2022-07-29T00:37:29;14.07;;;9.60;;
67941;SDS011;54731;42.600;23.476;2022-07-29T00:39:55;13.27;;;9.73;;
67941;SDS011;54731;42.600;23.476;2022-07-29T00:42:20;14.77;;;9.77;;
67941;SDS011;54731;42.600;23.476;2022-07-29T00:44:46;13.93;;;9.73;;
67941;SDS011;54731;42.600;23.476;2022-07-29T00:47:12;15.27;;;10.63;;
67941;SDS011;54731;42.600;23.476;2022-07-29T00:49:38;10.85;;;9.68;;
67941;SDS011;54731;42.600;23.476;2022-07-29T00:52:05;12.57;;;9.60;;
67941;SDS011;54731;42.600;23.476;2022-07-29T00:54:32;16.27;;;9.37;;
67941;SDS011;54731;42.600;23.476;2022-07-29T00:56:59;11.38;;;8.90;;
67941;SDS011;54731;42.600;23.476;2022-07-29T00:59:25;10.55;;;9.45;;
67941;SDS011;54731;42.600;23.476;2022-07-29T01:01:52;13.40;;;9.73;;
67941;SDS011;54731;42.600;23.476;2022-07-29T01:04:18;10.43;;;8.50;;
67941;SDS011;54731;42.600;23.476;2022-07-29T01:06:44;11.27;;;8.68;;
67941;SDS011;54731;42.600;23.476;2022-07-29T01:09:10;14.07;;;9.25;;
67941;SDS011;54731;42.600;23.476;2022-07-29T01:11:36;11.88;;;8.70;;
67941;SDS011;54731;42.600;23.476;2022-07-29T01:14:03;11.90;;;8.77;;
67941;SDS011;54731;42.600;23.476;2022-07-29T01:16:32;9.27;;;8.05;;
67941;SDS011;54731;42.600;23.476;2022-07-29T01:19:07;11.43;;;7.93;;
67941;SDS011;54731;42.600;23.476;2022-07-29T01:21:55;14.57;;;8.15;;
67941;SDS011;54731;42.600;23.476;2022-07-29T01:30:11;10.02;;;7.95;;
67941;SDS011;54731;42.600;23.476;2022-07-29T01:32:38;10.20;;;8.02;;
67941;SDS011;54731;42.600;23.476;2022-07-29T01:43:11;10.23;;;6.80;;
67941;SDS011;54731;42.600;23.476;2022-07-29T01:46:00;9.77;;;6.85;;
67941;SDS011;54731;42.600;23.476;2022-07-29T01:51:12;7.60;;;6.45;;
67941;SDS011;54731;42.600;23.476;2022-07-29T01:54:29;9.90;;;6.20;;
67941;SDS011;54731;42.600;23.476;2022-07-29T01:56:37;7.38;;;6.45;;
67941;SDS011;54731;42.600;23.476;2022-07-29T01:59:04;10.13;;;6.97;;
67941;SDS011;54731;42.600;23.476;2022-07-29T02:01:32;10.05;;;6.32;;
67941;SDS011;54731;42.600;23.476;2022-07-29T02:03:59;10.45;;;6.72;;
67941;SDS011;54731;42.600;23.476;2022-07-29T02:06:27;8.57;;;6.87;;
67941;SDS011;54731;42.600;23.476;2022-07-29T02:08:56;7.40;;;6.28;;
67941;SDS011;54731;42.600;23.476;2022-07-29T02:11:23;7.35;;;6.53;;
67941;SDS011;54731;42.600;23.476;2022-07-29T02:13:49;10.60;;;6.45;;
67941;SDS011;54731;42.600;23.476;2022-07-29T02:16:18;14.57;;;7.07;;
67941;SDS011;54731;42.600;23.476;2022-07-29T02:18:47;7.47;;;6.15;;
67941;SDS011;54731;42.600;23.476;2022-07-29T02:21:15;7.57;;;6.40;;
67941;SDS011;54731;42.600;23.476;2022-07-29T02:23:47;10.65;;;6.65;;
67941;SDS011;54731;42.600;23.476;2022-07-29T02:26:14;6.88;;;6.18;;
67941;SDS011;54731;42.600;23.476;2022-07-29T02:28:41;10.60;;;6.82;;
67941;SDS011;54731;42.600;23.476;2022-07-29T02:31:08;9.50;;;6.45;;
67941;SDS011;54731;42.600;23.476;2022-07-29T02:33:34;8.80;;;6.20;;
67941;SDS011;54731;42.600;23.476;2022-07-29T02:36:00;9.20;;;6.38;;
67941;SDS011;54731;42.600;23.476;2022-07-29T02:38:27;8.20;;;6.22;;
67941;SDS011;54731;42.600;23.476;2022-07-29T02:41:15;7.20;;;6.32;;
67941;SDS011;54731;42.600;23.476;2022-07-29T02:43:43;8.85;;;6.47;;
67941;SDS011;54731;42.600;23.476;2022-07-29T02:46:13;7.03;;;6.13;;
67941;SDS011;54731;42.600;23.476;2022-07-29T02:48:43;9.00;;;6.43;;
67941;SDS011;54731;42.600;23.476;2022-07-29T03:00:53;9.20;;;5.95;;
67941;SDS011;54731;42.600;23.476;2022-07-29T03:03:20;9.23;;;6.00;;
67941;SDS011;54731;42.600;23.476;2022-07-29T03:05:47;9.02;;;5.65;;
67941;SDS011;54731;42.600;23.476;2022-07-29T03:08:12;6.88;;;4.95;;
67941;SDS011;54731;42.600;23.476;2022-07-29T03:10:43;7.68;;;5.18;;
67941;SDS011;54731;42.600;23.476;2022-07-29T03:13:10;6.93;;;4.88;;
67941;SDS011;54731;42.600;23.476;2022-07-29T03:15:38;7.95;;;4.90;;
67941;SDS011;54731;42.600;23.476;2022-07-29T03:18:04;7.95;;;4.85;;
67941;SDS011;54731;42.600;23.476;2022-07-29T03:20:31;5.50;;;4.30;;
67941;SDS011;54731;42.600;23.476;2022-07-29T03:22:56;6.77;;;4.80;;
67941;SDS011;54731;42.600;23.476;2022-07-29T03:25:22;10.23;;;5.07;;
67941;SDS011;54731;42.600;23.476;2022-07-29T03:27:47;5.22;;;4.63;;
67941;SDS011;54731;42.600;23.476;2022-07-29T03:30:13;6.73;;;4.80;;
67941;SDS011;54731;42.600;23.476;2022-07-29T03:32:39;6.68;;;3.75;;
67941;SDS011;54731;42.600;23.476;2022-07-29T03:35:06;8.82;;;4.18;;
67941;SDS011;54731;42.600;23.476;2022-07-29T03:37:33;6.80;;;4.57;;
67941;SDS011;54731;42.600;23.476;2022-07-29T03:39:58;10.05;;;4.25;;
67941;SDS011;54731;42.600;23.476;2022-07-29T03:42:30;6.85;;;3.58;;
67941;SDS011;54731;42.600;23.476;2022-07-29T03:44:58;4.88;;;4.15;;
67941;SDS011;54731;42.600;23.476;2022-07-29T03:47:28;5.35;;;3.85;;
67941;SDS011;54731;42.600;23.476;2022-07-29T03:49:58;5.20;;;4.25;;
67941;SDS011;54731;42.600;23.476;2022-07-29T03:52:27;7.60;;;4.63;;
67941;SDS011;54731;42.600;23.476;2022-07-29T03:54:52;7.47;;;4.57;;
67941;SDS011;54731;42.600;23.476;2022-07-29T03:57:18;9.43;;;4.43;;
67941;SDS011;54731;42.600;23.476;2022-07-29T03:59:48;7.20;;;4.57;;
67941;SDS011;54731;42.600;23.476;2022-07-29T04:02:15;9.48;;;5.00;;
67941;SDS011;54731;42.600;23.476;2022-07-29T04:04:40;6.23;;;4.23;;
67941;SDS011;54731;42.600;23.476;2022-07-29T04:07:05;5.73;;;4.50;;
67941;SDS011;54731;42.600;23.476;2022-07-29T04:09:31;10.63;;;3.87;;
67941;SDS011;54731;42.600;23.476;2022-07-29T04:11:56;7.18;;;5.05;;
67941;SDS011;54731;42.600;23.476;2022-07-29T04:14:22;6.53;;;4.80;;
67941;SDS011;54731;42.600;23.476;2022-07-29T04:16:47;4.30;;;3.63;;
67941;SDS011;54731;42.600;23.476;2022-07-29T04:19:13;7.13;;;4.40;;
67941;SDS011;54731;42.600;23.476;2022-07-29T04:21:39;6.93;;;4.40;;
67941;SDS011;54731;42.600;23.476;2022-07-29T04:24:05;7.77;;;4.07;;
67941;SDS011;54731;42.600;23.476;2022-07-29T04:26:31;5.20;;;4.68;;
67941;SDS011;54731;42.600;23.476;2022-07-29T04:28:57;6.93;;;4.68;;
67941;SDS011;54731;42.600;23.476;2022-07-29T04:31:22;5.67;;;4.37;;
67941;SDS011;54731;42.600;23.476;2022-07-29T04:33:47;7.37;;;4.60;;
67941;SDS011;54731;42.600;23.476;2022-07-29T04:36:13;5.57;;;3.97;;
67941;SDS011;54731;42.600;23.476;2022-07-29T04:38:38;7.75;;;4.43;;
67941;SDS011;54731;42.600;23.476;2022-07-29T04:41:04;6.33;;;4.13;;
67941;SDS011;54731;42.600;23.476;2022-07-29T04:43:31;5.82;;;4.07;;
67941;SDS011;54731;42.600;23.476;2022-07-29T04:45:58;6.00;;;4.65;;
67941;SDS011;54731;42.600;23.476;2022-07-29T04:48:23;5.40;;;4.40;;
67941;SDS011;54731;42.600;23.476;2022-07-29T04:50:48;10.60;;;6.57;;
67941;SDS011;54731;42.600;23.476;2022-07-29T04:53:14;11.17;;;6.90;;
67941;SDS011;54731;42.600;23.476;2022-07-29T04:55:39;9.07;;;7.10;;
67941;SDS011;54731;42.600;23.476;2022-07-29T04:58:05;9.02;;;6.68;;
67941;SDS011;54731;42.600;23.476;2022-07-29T05:00:30;7.97;;;4.87;;
67941;SDS011;54731;42.600;23.476;2022-07-29T05:02:56;7.43;;;5.50;;
67941;SDS011;54731;42.600;23.476;2022-07-29T05:05:21;11.90;;;6.20;;
67941;SDS011;54731;42.600;23.476;2022-07-29T05:07:46;7.82;;;6.10;;
67941;SDS011;54731;42.600;23.476;2022-07-29T05:10:13;7.60;;;6.47;;
67941;SDS011;54731;42.600;23.476;2022-07-29T05:12:38;13.00;;;6.97;;
67941;SDS011;54731;42.600;23.476;2022-07-29T05:15:04;9.80;;;6.83;;
67941;SDS011;54731;42.600;23.476;2022-07-29T05:17:30;9.15;;;6.57;;
67941;SDS011;54731;42.600;23.476;2022-07-29T05:19:55;7.37;;;6.07;;
67941;SDS011;54731;42.600;23.476;2022-07-29T05:22:21;10.37;;;5.87;;
67941;SDS011;54731;42.600;23.476;2022-07-29T05:24:46;10.33;;;6.67;;
67941;SDS011;54731;42.600;23.476;2022-07-29T05:27:12;11.63;;;7.20;;
67941;SDS011;54731;42.600;23.476;2022-07-29T05:29:37;12.87;;;7.33;;
67941;SDS011;54731;42.600;23.476;2022-07-29T05:32:03;7.47;;;6.37;;
67941;SDS011;54731;42.600;23.476;2022-07-29T05:34:29;10.65;;;5.93;;
67941;SDS011;54731;42.600;23.476;2022-07-29T05:36:55;6.25;;;5.05;;
67941;SDS011;54731;42.600;23.476;2022-07-29T05:39:21;9.77;;;5.67;;
67941;SDS011;54731;42.600;23.476;2022-07-29T05:41:47;9.15;;;6.32;;
67941;SDS011;54731;42.600;23.476;2022-07-29T05:44:12;7.77;;;5.80;;
67941;SDS011;54731;42.600;23.476;2022-07-29T05:46:38;7.70;;;5.63;;
67941;SDS011;54731;42.600;23.476;2022-07-29T05:49:04;9.73;;;6.80;;
67941;SDS011;54731;42.600;23.476;2022-07-29T05:51:31;12.75;;;8.32;;
67941;SDS011;54731;42.600;23.476;2022-07-29T05:53:57;13.50;;;7.80;;
67941;SDS011;54731;42.600;23.476;2022-07-29T05:56:23;11.93;;;8.00;;
67941;SDS011;54731;42.600;23.476;2022-07-29T05:58:49;9.05;;;7.18;;
67941;SDS011;54731;42.600;23.476;2022-07-29T06:01:14;8.37;;;6.40;;
67941;SDS011;54731;42.600;23.476;2022-07-29T06:03:40;9.60;;;6.25;;
67941;SDS011;54731;42.600;23.476;2022-07-29T06:06:06;10.37;;;6.07;;
67941;SDS011;54731;42.600;23.476;2022-07-29T06:08:32;10.38;;;6.85;;
67941;SDS011;54731;42.600;23.476;2022-07-29T06:10:59;9.00;;;7.60;;
67941;SDS011;54731;42.600;23.476;2022-07-29T06:13:25;9.50;;;6.68;;
67941;SDS011;54731;42.600;23.476;2022-07-29T06:15:50;10.60;;;7.80;;
67941;SDS011;54731;42.600;23.476;2022-07-29T06:18:16;9.15;;;7.35;;
67941;SDS011;54731;42.600;23.476;2022-07-29T06:20:41;13.13;;;7.68;;
67941;SDS011;54731;42.600;23.476;2022-07-29T06:23:07;10.37;;;7.00;;
67941;SDS011;54731;42.600;23.476;2022-07-29T06:25:33;9.68;;;7.40;;
67941;SDS011;54731;42.600;23.476;2022-07-29T06:28:00;8.32;;;6.35;;
67941;SDS011;54731;42.600;23.476;2022-07-29T06:30:26;9.90;;;5.93;;
67941;SDS011;54731;42.600;23.476;2022-07-29T06:32:51;8.38;;;5.72;;
67941;SDS011;54731;42.600;23.476;2022-07-29T06:35:17;7.82;;;5.85;;
67941;SDS011;54731;42.600;23.476;2022-07-29T06:37:43;10.02;;;6.20;;
67941;SDS011;54731;42.600;23.476;2022-07-29T06:40:08;9.02;;;6.47;;
67941;SDS011;54731;42.600;23.476;2022-07-29T06:42:52;7.93;;;6.47;;
67941;SDS011;54731;42.600;23.476;2022-07-29T06:45:18;8.93;;;5.60;;
67941;SDS011;54731;42.600;23.476;2022-07-29T06:47:43;7.73;;;6.07;;
67941;SDS011;54731;42.600;23.476;2022-07-29T06:50:09;7.27;;;5.40;;
67941;SDS011;54731;42.600;23.476;2022-07-29T06:52:37;7.68;;;5.80;;
67941;SDS011;54731;42.600;23.476;2022-07-29T06:55:04;5.50;;;4.95;;
67941;SDS011;54731;42.600;23.476;2022-07-29T06:57:29;8.07;;;5.20;;
67941;SDS011;54731;42.600;23.476;2022-07-29T06:59:58;8.37;;;5.23;;
67941;SDS011;54731;42.600;23.476;2022-07-29T07:02:23;7.68;;;4.70;;
67941;SDS011;54731;42.600;23.476;2022-07-29T07:04:49;6.43;;;4.43;;
67941;SDS011;54731;42.600;23.476;2022-07-29T07:07:14;6.00;;;4.27;;
67941;SDS011;54731;42.600;23.476;2022-07-29T07:09:40;8.05;;;4.25;;
67941;SDS011;54731;42.600;23.476;2022-07-29T07:12:06;6.43;;;4.20;;
67941;SDS011;54731;42.600;23.476;2022-07-29T07:14:31;4.93;;;4.22;;
67941;SDS011;54731;42.600;23.476;2022-07-29T07:16:57;6.47;;;4.20;;
67941;SDS011;54731;42.600;23.476;2022-07-29T07:19:22;4.80;;;4.20;;
67941;SDS011;54731;42.600;23.476;2022-07-29T07:21:48;6.70;;;4.83;;
67941;SDS011;54731;42.600;23.476;2022-07-29T07:24:13;7.15;;;4.07;;
67941;SDS011;54731;42.600;23.476;2022-07-29T07:26:39;5.87;;;4.33;;
67941;SDS011;54731;42.600;23.476;2022-07-29T07:29:05;6.53;;;4.03;;
67941;SDS011;54731;42.600;23.476;2022-07-29T07:31:30;6.22;;;4.32;;
67941;SDS011;54731;42.600;23.476;2022-07-29T07:33:56;4.63;;;3.70;;
67941;SDS011;54731;42.600;23.476;2022-07-29T07:36:22;4.87;;;3.50;;
67941;SDS011;54731;42.600;23.476;2022-07-29T07:38:48;6.30;;;3.65;;
67941;SDS011;54731;42.600;23.476;2022-07-29T07:41:14;4.22;;;3.03;;
67941;SDS011;54731;42.600;23.476;2022-07-29T07:43:39;3.57;;;3.17;;
67941;SDS011;54731;42.600;23.476;2022-07-29T07:46:05;5.15;;;4.25;;
67941;SDS011;54731;42.600;23.476;2022-07-29T07:48:31;3.37;;;3.07;;
67941;SDS011;54731;42.600;23.476;2022-07-29T07:50:56;5.80;;;3.13;;
67941;SDS011;54731;42.600;23.476;2022-07-29T07:53:22;5.03;;;2.73;;
67941;SDS011;54731;42.600;23.476;2022-07-29T07:55:47;6.22;;;2.70;;
67941;SDS011;54731;42.600;23.476;2022-07-29T07:58:13;3.93;;;2.70;;
67941;SDS011;54731;42.600;23.476;2022-07-29T08:00:38;4.50;;;2.80;;
67941;SDS011;54731;42.600;23.476;2022-07-29T08:03:03;4.93;;;3.03;;
67941;SDS011;54731;42.600;23.476;2022-07-29T08:05:29;3.03;;;2.75;;
67941;SDS011;54731;42.600;23.476;2022-07-29T08:07:55;4.40;;;3.03;;
67941;SDS011;54731;42.600;23.476;2022-07-29T08:10:20;3.33;;;2.67;;
67941;SDS011;54731;42.600;23.476;2022-07-29T08:13:05;4.15;;;2.88;;
67941;SDS011;54731;42.600;23.476;2022-07-29T08:15:32;3.35;;;2.90;;
67941;SDS011;54731;42.600;23.476;2022-07-29T08:17:58;3.97;;;2.72;;
67941;SDS011;54731;42.600;23.476;2022-07-29T08:20:23;3.87;;;2.87;;
67941;SDS011;54731;42.600;23.476;2022-07-29T08:22:49;3.88;;;2.63;;
67941;SDS011;54731;42.600;23.476;2022-07-29T08:25:14;8.23;;;2.97;;
67941;SDS011;54731;42.600;23.476;2022-07-29T08:27:40;4.00;;;2.90;;
67941;SDS011;54731;42.600;23.476;2022-07-29T08:30:06;3.85;;;2.72;;
67941;SDS011;54731;42.600;23.476;2022-07-29T08:32:32;7.37;;;2.80;;
67941;SDS011;54731;42.600;23.476;2022-07-29T08:34:57;4.55;;;2.88;;
67941;SDS011;54731;42.600;23.476;2022-07-29T08:37:23;5.73;;;3.17;;
67941;SDS011;54731;42.600;23.476;2022-07-29T08:39:48;10.53;;;3.67;;
67941;SDS011;54731;42.600;23.476;2022-07-29T08:42:14;8.38;;;3.45;;
67941;SDS011;54731;42.600;23.476;2022-07-29T08:44:41;6.80;;;3.27;;
67941;SDS011;54731;42.600;23.476;2022-07-29T08:47:07;6.97;;;4.28;;
67941;SDS011;54731;42.600;23.476;2022-07-29T08:49:33;7.40;;;3.80;;
67941;SDS011;54731;42.600;23.476;2022-07-29T08:52:00;5.57;;;3.83;;
67941;SDS011;54731;42.600;23.476;2022-07-29T08:54:26;5.30;;;4.05;;
67941;SDS011;54731;42.600;23.476;2022-07-29T08:56:52;5.10;;;3.58;;
67941;SDS011;54731;42.600;23.476;2022-07-29T08:59:20;8.48;;;3.40;;
67941;SDS011;54731;42.600;23.476;2022-07-29T09:01:47;6.03;;;3.40;;
67941;SDS011;54731;42.600;23.476;2022-07-29T09:04:16;5.70;;;3.72;;
67941;SDS011;54731;42.600;23.476;2022-07-29T09:06:45;5.65;;;3.63;;
67941;SDS011;54731;42.600;23.476;2022-07-29T09:09:13;6.10;;;3.63;;
67941;SDS011;54731;42.600;23.476;2022-07-29T09:11:39;6.87;;;3.50;;
67941;SDS011;54731;42.600;23.476;2022-07-29T09:14:06;7.72;;;4.00;;
67941;SDS011;54731;42.600;23.476;2022-07-29T09:16:53;6.70;;;4.25;;
67941;SDS011;54731;42.600;23.476;2022-07-29T09:19:24;4.88;;;4.18;;
67941;SDS011;54731;42.600;23.476;2022-07-29T09:21:54;8.70;;;3.95;;
67941;SDS011;54731;42.600;23.476;2022-07-29T09:24:42;4.78;;;4.30;;
67941;SDS011;54731;42.600;23.476;2022-07-29T09:27:23;4.70;;;3.90;;
67941;SDS011;54731;42.600;23.476;2022-07-29T09:32:27;6.05;;;4.38;;
67941;SDS011;54731;42.600;23.476;2022-07-29T09:35:15;6.97;;;4.22;;
67941;SDS011;54731;42.600;23.476;2022-07-29T09:37:40;6.18;;;3.05;;
67941;SDS011;54731;42.600;23.476;2022-07-29T09:40:16;5.43;;;3.85;;
67941;SDS011;54731;42.600;23.476;2022-07-29T09:42:49;7.53;;;3.67;;
67941;SDS011;54731;42.600;23.476;2022-07-29T09:45:31;4.40;;;3.90;;
67941;SDS011;54731;42.600;23.476;2022-07-29T09:47:58;3.85;;;3.25;;
67941;SDS011;54731;42.600;23.476;2022-07-29T09:50:38;7.00;;;3.38;;
67941;SDS011;54731;42.600;23.476;2022-07-29T09:53:04;3.92;;;3.35;;
67941;SDS011;54731;42.600;23.476;2022-07-29T09:55:30;12.33;;;3.30;;
67941;SDS011;54731;42.600;23.476;2022-07-29T09:58:14;4.30;;;3.70;;
67941;SDS011;54731;42.600;23.476;2022-07-29T10:00:44;4.38;;;3.67;;
67941;SDS011;54731;42.600;23.476;2022-07-29T10:03:11;5.78;;;3.20;;
67941;SDS011;54731;42.600;23.476;2022-07-29T10:05:37;3.60;;;2.72;;
67941;SDS011;54731;42.600;23.476;2022-07-29T10:08:04;5.63;;;3.30;;
67941;SDS011;54731;42.600;23.476;2022-07-29T10:10:31;3.67;;;3.17;;
67941;SDS011;54731;42.600;23.476;2022-07-29T10:12:59;6.72;;;3.25;;
67941;SDS011;54731;42.600;23.476;2022-07-29T10:15:27;6.78;;;3.95;;
67941;SDS011;54731;42.600;23.476;2022-07-29T10:18:02;4.38;;;3.38;;
67941;SDS011;54731;42.600;23.476;2022-07-29T10:20:27;7.63;;;3.10;;
67941;SDS011;54731;42.600;23.476;2022-07-29T10:22:53;5.82;;;3.38;;
67941;SDS011;54731;42.600;23.476;2022-07-29T10:25:20;4.68;;;3.50;;
67941;SDS011;54731;42.600;23.476;2022-07-29T10:27:48;4.65;;;3.03;;
67941;SDS011;54731;42.600;23.476;2022-07-29T10:30:14;3.78;;;3.05;;
67941;SDS011;54731;42.600;23.476;2022-07-29T10:43:52;6.03;;;3.55;;
67941;SDS011;54731;42.600;23.476;2022-07-29T10:46:54;9.45;;;4.15;;
67941;SDS011;54731;42.600;23.476;2022-07-29T10:49:23;4.82;;;3.80;;
67941;SDS011;54731;42.600;23.476;2022-07-29T10:52:04;3.60;;;3.13;;
67941;SDS011;54731;42.600;23.476;2022-07-29T10:59:45;4.10;;;3.70;;
67941;SDS011;54731;42.600;23.476;2022-07-29T11:05:02;6.73;;;3.40;;
67941;SDS011;54731;42.600;23.476;2022-07-29T11:07:29;4.57;;;3.42;;
67941;SDS011;54731;42.600;23.476;2022-07-29T11:10:28;3.97;;;3.60;;
67941;SDS011;54731;42.600;23.476;2022-07-29T11:12:47;4.65;;;4.25;;
67941;SDS011;54731;42.600;23.476;2022-07-29T11:15:14;6.43;;;3.93;;
67941;SDS011;54731;42.600;23.476;2022-07-29T11:20:44;5.18;;;4.32;;
67941;SDS011;54731;42.600;23.476;2022-07-29T11:23:18;4.93;;;3.60;;
67941;SDS011;54731;42.600;23.476;2022-07-29T11:29:03;8.48;;;3.40;;
67941;SDS011;54731;42.600;23.476;2022-07-29T11:31:44;4.82;;;3.50;;
67941;SDS011;54731;42.600;23.476;2022-07-29T11:34:30;5.43;;;3.70;;
67941;SDS011;54731;42.600;23.476;2022-07-29T11:39:35;4.00;;;3.60;;
67941;SDS011;54731;42.600;23.476;2022-07-29T11:44:58;6.30;;;3.92;;
67941;SDS011;54731;42.600;23.476;2022-07-29T11:47:35;5.22;;;4.25;;
67941;SDS011;54731;42.600;23.476;2022-07-29T11:50:03;6.30;;;4.70;;
67941;SDS011;54731;42.600;23.476;2022-07-29T11:52:33;4.68;;;4.28;;
67941;SDS011;54731;42.600;23.476;2022-07-29T11:55:02;4.88;;;4.07;;
67941;SDS011;54731;42.600;23.476;2022-07-29T11:57:29;5.55;;;5.07;;
67941;SDS011;54731;42.600;23.476;2022-07-29T11:59:55;4.70;;;4.07;;
67941;SDS011;54731;42.600;23.476;2022-07-29T12:02:23;6.78;;;4.75;;
67941;SDS011;54731;42.600;23.476;2022-07-29T12:04:50;5.78;;;5.10;;
67941;SDS011;54731;42.600;23.476;2022-07-29T12:07:16;5.97;;;4.65;;
67941;SDS011;54731;42.600;23.476;2022-07-29T12:09:51;5.65;;;5.15;;
67941;SDS011;54731;42.600;23.476;2022-07-29T12:12:17;6.40;;;4.23;;
67941;SDS011;54731;42.600;23.476;2022-07-29T12:14:43;4.80;;;4.40;;
67941;SDS011;54731;42.600;23.476;2022-07-29T12:17:27;7.45;;;5.00;;
67941;SDS011;54731;42.600;23.476;2022-07-29T12:19:58;5.55;;;4.60;;
67941;SDS011;54731;42.600;23.476;2022-07-29T12:22:31;4.73;;;4.33;;
67941;SDS011;54731;42.600;23.476;2022-07-29T12:25:02;5.03;;;4.57;;
67941;SDS011;54731;42.600;23.476;2022-07-29T12:27:29;5.40;;;4.78;;
67941;SDS011;54731;42.600;23.476;2022-07-29T12:29:59;7.53;;;4.60;;
67941;SDS011;54731;42.600;23.476;2022-07-29T12:32:39;6.28;;;4.50;;
67941;SDS011;54731;42.600;23.476;2022-07-29T12:35:10;5.25;;;4.75;;
67941;SDS011;54731;42.600;23.476;2022-07-29T12:37:41;5.82;;;5.25;;
67941;SDS011;54731;42.600;23.476;2022-07-29T12:40:08;4.82;;;4.40;;
67941;SDS011;54731;42.600;23.476;2022-07-29T12:42:35;6.07;;;5.57;;
67941;SDS011;54731;42.600;23.476;2022-07-29T12:45:02;7.13;;;4.82;;
67941;SDS011;54731;42.600;23.476;2022-07-29T12:47:28;5.30;;;4.90;;
67941;SDS011;54731;42.600;23.476;2022-07-29T12:50:10;5.73;;;4.60;;
67941;SDS011;54731;42.600;23.476;2022-07-29T12:52:42;5.57;;;4.82;;
67941;SDS011;54731;42.600;23.476;2022-07-29T12:55:09;4.80;;;4.35;;
67941;SDS011;54731;42.600;23.476;2022-07-29T12:57:44;5.93;;;5.20;;
67941;SDS011;54731;42.600;23.476;2022-07-29T13:00:13;5.75;;;5.25;;
67941;SDS011;54731;42.600;23.476;2022-07-29T13:02:40;7.05;;;5.20;;
67941;SDS011;54731;42.600;23.476;2022-07-29T13:05:07;5.00;;;4.53;;
67941;SDS011;54731;42.600;23.476;2022-07-29T13:07:34;5.70;;;4.88;;
67941;SDS011;54731;42.600;23.476;2022-07-29T13:15:27;5.05;;;4.53;;
67941;SDS011;54731;42.600;23.476;2022-07-29T13:17:53;6.75;;;5.53;;
67941;SDS011;54731;42.600;23.476;2022-07-29T13:20:22;5.47;;;4.90;;
67941;SDS011;54731;42.600;23.476;2022-07-29T13:22:49;5.18;;;4.78;;
67941;SDS011;54731;42.600;23.476;2022-07-29T13:25:15;7.30;;;4.90;;
67941;SDS011;54731;42.600;23.476;2022-07-29T13:27:49;5.30;;;4.80;;
67941;SDS011;54731;42.600;23.476;2022-07-29T13:30:14;4.93;;;4.53;;
67941;SDS011;54731;42.600;23.476;2022-07-29T13:32:40;8.48;;;4.13;;
67941;SDS011;54731;42.600;23.476;2022-07-29T13:35:06;6.40;;;5.10;;
67941;SDS011;54731;42.600;23.476;2022-07-29T13:37:33;5.75;;;4.43;;
67941;SDS011;54731;42.600;23.476;2022-07-29T13:40:00;9.23;;;5.30;;
67941;SDS011;54731;42.600;23.476;2022-07-29T13:42:28;4.63;;;4.23;;
67941;SDS011;54731;42.600;23.476;2022-07-29T13:44:53;4.22;;;3.83;;
67941;SDS011;54731;42.600;23.476;2022-07-29T13:47:19;4.70;;;4.23;;
67941;SDS011;54731;42.600;23.476;2022-07-29T13:49:45;4.97;;;4.50;;
67941;SDS011;54731;42.600;23.476;2022-07-29T13:52:11;5.30;;;4.72;;
67941;SDS011;54731;42.600;23.476;2022-07-29T13:54:36;8.70;;;4.37;;
67941;SDS011;54731;42.600;23.476;2022-07-29T13:57:06;5.28;;;4.78;;
67941;SDS011;54731;42.600;23.476;2022-07-29T13:59:32;5.88;;;4.75;;
67941;SDS011;54731;42.600;23.476;2022-07-29T14:01:58;5.60;;;5.10;;
67941;SDS011;54731;42.600;23.476;2022-07-29T14:04:24;5.75;;;4.78;;
67941;SDS011;54731;42.600;23.476;2022-07-29T14:06:50;5.80;;;4.83;;
67941;SDS011;54731;42.600;23.476;2022-07-29T14:09:16;5.35;;;4.85;;
67941;SDS011;54731;42.600;23.476;2022-07-29T14:11:41;5.50;;;5.00;;
67941;SDS011;54731;42.600;23.476;2022-07-29T14:14:07;5.87;;;4.80;;
67941;SDS011;54731;42.600;23.476;2022-07-29T14:16:32;7.47;;;4.80;;
67941;SDS011;54731;42.600;23.476;2022-07-29T14:18:58;5.37;;;4.87;;
67941;SDS011;54731;42.600;23.476;2022-07-29T14:21:23;5.20;;;4.78;;
67941;SDS011;54731;42.600;23.476;2022-07-29T14:23:49;5.27;;;4.87;;
67941;SDS011;54731;42.600;23.476;2022-07-29T14:26:15;5.45;;;4.95;;
67941;SDS011;54731;42.600;23.476;2022-07-29T14:28:40;5.10;;;4.60;;
67941;SDS011;54731;42.600;23.476;2022-07-29T14:31:07;5.40;;;4.90;;
67941;SDS011;54731;42.600;23.476;2022-07-29T14:33:32;5.43;;;4.85;;
67941;SDS011;54731;42.600;23.476;2022-07-29T14:35:58;5.30;;;4.87;;
67941;SDS011;54731;42.600;23.476;2022-07-29T14:38:23;6.53;;;5.50;;
67941;SDS011;54731;42.600;23.476;2022-07-29T14:40:48;4.80;;;4.30;;
67941;SDS011;54731;42.600;23.476;2022-07-29T14:43:14;6.80;;;4.70;;
67941;SDS011;54731;42.600;23.476;2022-07-29T14:45:40;5.87;;;5.20;;
67941;SDS011;54731;42.600;23.476;2022-07-29T14:48:06;5.90;;;5.20;;
67941;SDS011;54731;42.600;23.476;2022-07-29T14:50:31;4.60;;;4.20;;
67941;SDS011;54731;42.600;23.476;2022-07-29T14:52:57;6.78;;;4.57;;
67941;SDS011;54731;42.600;23.476;2022-07-29T14:55:23;4.97;;;4.47;;
67941;SDS011;54731;42.600;23.476;2022-07-29T14:57:48;5.50;;;5.00;;
67941;SDS011;54731;42.600;23.476;2022-07-29T15:00:15;4.38;;;4.07;;
67941;SDS011;54731;42.600;23.476;2022-07-29T15:02:41;5.43;;;4.60;;
67941;SDS011;54731;42.600;23.476;2022-07-29T15:05:07;5.87;;;4.90;;
67941;SDS011;54731;42.600;23.476;2022-07-29T15:07:33;4.80;;;4.40;;
67941;SDS011;54731;42.600;23.476;2022-07-29T15:09:58;15.37;;;4.80;;
67941;SDS011;54731;42.600;23.476;2022-07-29T15:12:24;5.07;;;4.50;;
67941;SDS011;54731;42.600;23.476;2022-07-29T15:14:49;4.63;;;4.18;;
67941;SDS011;54731;42.600;23.476;2022-07-29T15:17:15;7.37;;;4.40;;
67941;SDS011;54731;42.600;23.476;2022-07-29T15:19:41;8.97;;;4.40;;
67941;SDS011;54731;42.600;23.476;2022-07-29T15:22:06;7.68;;;4.72;;
67941;SDS011;54731;42.600;23.476;2022-07-29T15:24:32;5.03;;;4.50;;
67941;SDS011;54731;42.600;23.476;2022-07-29T15:26:57;5.47;;;4.60;;
67941;SDS011;54731;42.600;23.476;2022-07-29T15:29:23;6.18;;;4.78;;
67941;SDS011;54731;42.600;23.476;2022-07-29T15:31:49;7.07;;;5.13;;
67941;SDS011;54731;42.600;23.476;2022-07-29T15:34:14;5.68;;;5.00;;
67941;SDS011;54731;42.600;23.476;2022-07-29T15:36:40;4.87;;;4.47;;
67941;SDS011;54731;42.600;23.476;2022-07-29T15:39:05;17.33;;;5.60;;